createdAt,value
2022-11-23T00:00:44.869Z,3.65
2022-11-23T00:03:16.051Z,3.42
2022-11-23T00:05:43.337Z,3.88
2022-11-23T00:08:10.692Z,3.60
2022-11-23T00:10:37.941Z,3.40
2022-11-23T00:13:05.263Z,3.30
2022-11-23T00:15:32.543Z,3.38
2022-11-23T00:18:02.734Z,3.15
2022-11-23T00:20:29.976Z,3.50
2022-11-23T00:22:57.349Z,3.47
2022-11-23T00:25:24.607Z,3.50
2022-11-23T00:27:51.810Z,3.60
2022-11-23T00:30:19.023Z,3.10
2022-11-23T00:32:46.689Z,3.47
2022-11-23T00:35:13.884Z,3.25
2022-11-23T00:37:41.114Z,3.33
2022-11-23T00:40:09.132Z,4.18
2022-11-23T00:42:38.192Z,3.50
2022-11-23T00:45:06.145Z,3.03
2022-11-23T00:47:33.442Z,3.10
2022-11-23T00:50:00.708Z,3.13
2022-11-23T00:52:27.987Z,2.92
2022-11-23T00:54:55.361Z,3.05
2022-11-23T00:57:22.696Z,3.60
2022-11-23T00:59:49.898Z,3.13
2022-11-23T01:02:17.187Z,3.05
2022-11-23T01:04:44.435Z,3.13
2022-11-23T01:07:11.817Z,2.60
2022-11-23T01:09:40.500Z,3.08
2022-11-23T01:12:07.796Z,3.35
2022-11-23T01:14:35.223Z,2.88
2022-11-23T01:17:05.246Z,2.47
2022-11-23T01:19:35.419Z,2.70
2022-11-23T01:22:02.770Z,3.20
2022-11-23T01:24:30.285Z,3.13
2022-11-23T01:26:57.552Z,3.35
2022-11-23T01:29:27.223Z,2.60
2022-11-23T01:31:54.511Z,3.13
2022-11-23T01:34:22.200Z,2.95
2022-11-23T01:36:50.609Z,2.92
2022-11-23T01:39:17.873Z,2.75
2022-11-23T01:41:45.755Z,2.70
2022-11-23T01:44:29.558Z,2.58
2022-11-23T01:47:02.294Z,2.60
2022-11-23T01:49:48.302Z,2.70
2022-11-23T01:52:20.653Z,2.65
2022-11-23T01:54:54.812Z,2.70
2022-11-23T01:57:34.857Z,2.88
2022-11-23T02:00:02.271Z,2.70
2022-11-23T02:02:45.766Z,2.63
2022-11-23T02:05:14.842Z,3.08
2022-11-23T02:07:48.068Z,2.25
2022-11-23T02:10:16.525Z,2.58
2022-11-23T02:12:43.964Z,3.08
2022-11-23T02:15:12.940Z,2.53
2022-11-23T02:17:43.458Z,2.65
2022-11-23T02:20:13.947Z,2.28
2022-11-23T02:22:51.035Z,2.42
2022-11-23T02:25:41.484Z,2.92
2022-11-23T02:28:13.169Z,2.28
2022-11-23T02:30:41.336Z,2.50
2022-11-23T02:33:08.650Z,2.72
2022-11-23T02:35:36.061Z,2.22
2022-11-23T02:38:06.776Z,2.55
2022-11-23T02:40:36.912Z,2.65
2022-11-23T02:43:04.216Z,2.35
2022-11-23T02:45:38.509Z,2.45
2022-11-23T02:48:05.935Z,2.30
2022-11-23T02:50:33.218Z,2.88
2022-11-23T02:53:00.931Z,2.22
2022-11-23T02:55:28.392Z,2.28
2022-11-23T02:57:55.672Z,2.67
2022-11-23T03:00:22.989Z,2.30
2022-11-23T03:02:50.267Z,2.80
2022-11-23T03:05:17.771Z,2.58
2022-11-23T03:07:45.003Z,2.28
2022-11-23T03:10:13.826Z,2.13
2022-11-23T03:12:41.289Z,2.10
2022-11-23T03:15:09.937Z,2.60
2022-11-23T03:17:41.149Z,2.35
2022-11-23T03:20:12.204Z,2.72
2022-11-23T03:22:43.745Z,2.03
2022-11-23T03:25:13.225Z,1.80
2022-11-23T03:27:40.710Z,2.03
2022-11-23T03:30:09.657Z,2.00
2022-11-23T03:32:37.712Z,2.08
2022-11-23T03:35:06.126Z,1.95
2022-11-23T03:37:35.574Z,2.22
2022-11-23T03:40:03.346Z,2.50
2022-11-23T03:42:49.143Z,1.75
2022-11-23T03:45:16.851Z,2.10
2022-11-23T03:47:44.679Z,1.98
2022-11-23T03:50:12.279Z,1.90
2022-11-23T03:52:39.577Z,2.25
2022-11-23T03:55:07.261Z,1.90
2022-11-23T03:57:35.193Z,2.08
2022-11-23T04:00:05.154Z,2.03
2022-11-23T04:02:40.877Z,1.70
2022-11-23T04:05:23.843Z,1.65
2022-11-23T04:08:09.906Z,1.65
2022-11-23T04:10:38.159Z,1.67
2022-11-23T04:13:13.777Z,1.80
2022-11-23T04:15:41.264Z,1.80
2022-11-23T04:18:09.895Z,1.90
2022-11-23T04:20:39.160Z,1.83
2022-11-23T04:23:11.769Z,1.67
2022-11-23T04:25:40.745Z,1.60
2022-11-23T04:28:09.276Z,1.70
2022-11-23T04:30:37.172Z,1.70
2022-11-23T04:33:04.658Z,1.48
2022-11-23T04:35:34.258Z,1.40
2022-11-23T04:38:02.500Z,1.67
2022-11-23T04:40:31.844Z,1.48
2022-11-23T04:43:04.063Z,1.45
2022-11-23T04:45:38.179Z,1.35
2022-11-23T04:48:07.890Z,1.52
2022-11-23T04:50:40.464Z,0.88
2022-11-23T04:53:09.519Z,1.58
2022-11-23T04:58:10.746Z,1.15
2022-11-23T05:00:38.032Z,1.38
2022-11-23T05:03:06.329Z,1.52
2022-11-23T05:05:39.919Z,1.42
2022-11-23T05:08:08.631Z,1.73
2022-11-23T05:10:50.834Z,1.00
2022-11-23T05:13:19.241Z,1.23
2022-11-23T05:15:50.066Z,1.25
2022-11-23T05:18:23.406Z,1.40
2022-11-23T05:20:51.351Z,1.40
2022-11-23T05:23:18.973Z,1.25
2022-11-23T05:25:46.966Z,1.40
2022-11-23T05:28:39.185Z,1.23
2022-11-23T05:31:07.889Z,1.20
2022-11-23T05:33:35.624Z,1.30
2022-11-23T05:36:04.787Z,1.30
2022-11-23T05:38:37.390Z,1.15
2022-11-23T05:41:10.613Z,1.38
2022-11-23T05:43:40.974Z,0.95
2022-11-23T05:46:11.467Z,1.00
2022-11-23T05:48:39.438Z,1.50
2022-11-23T05:51:11.247Z,1.33
2022-11-23T05:56:29.683Z,1.13
2022-11-23T05:59:12.487Z,1.03
2022-11-23T06:01:43.446Z,1.30
2022-11-23T06:04:18.729Z,1.15
2022-11-23T06:06:46.564Z,1.00
2022-11-23T06:09:13.856Z,1.27
2022-11-23T06:11:45.149Z,1.00
2022-11-23T06:14:17.388Z,1.40
2022-11-23T06:16:46.670Z,1.27
2022-11-23T06:19:25.612Z,1.30
2022-11-23T06:21:53.608Z,1.05
2022-11-23T06:24:22.425Z,1.30
2022-11-23T06:27:02.477Z,1.10
2022-11-23T06:29:31.390Z,1.17
2022-11-23T06:31:58.980Z,1.20
2022-11-23T06:34:27.170Z,0.93
2022-11-23T06:36:54.389Z,1.05
2022-11-23T06:39:24.162Z,1.10
2022-11-23T06:41:52.827Z,1.08
2022-11-23T06:44:20.457Z,1.05
2022-11-23T06:46:47.905Z,0.80
2022-11-23T06:49:15.993Z,1.00
2022-11-23T06:51:47.085Z,1.00
2022-11-23T06:54:14.339Z,1.00
2022-11-23T06:56:41.907Z,1.10
2022-11-23T06:59:10.457Z,1.15
2022-11-23T07:01:37.785Z,1.20
2022-11-23T07:04:09.108Z,1.33
2022-11-23T07:06:44.844Z,1.30
2022-11-23T07:09:23.329Z,1.30
2022-11-23T07:12:19.643Z,1.20
2022-11-23T07:14:46.982Z,1.42
2022-11-23T07:17:17.381Z,1.40
2022-11-23T07:19:45.952Z,1.10
2022-11-23T07:22:13.330Z,1.23
2022-11-23T07:24:46.358Z,1.48
2022-11-23T07:27:14.150Z,1.00
2022-11-23T07:29:41.491Z,1.23
2022-11-23T07:32:08.929Z,1.17
2022-11-23T07:34:36.937Z,1.48
2022-11-23T07:37:07.258Z,1.73
2022-11-23T07:39:56.342Z,1.17
2022-11-23T07:42:44.446Z,1.55
2022-11-23T07:45:11.956Z,1.35
2022-11-23T07:47:44.810Z,1.80
2022-11-23T07:50:13.540Z,1.67
2022-11-23T07:52:41.751Z,1.35
2022-11-23T07:55:09.510Z,1.35
2022-11-23T07:57:36.757Z,1.40
2022-11-23T08:00:05.046Z,1.85
2022-11-23T08:02:52.731Z,1.70
2022-11-23T08:05:27.412Z,1.77
2022-11-23T08:08:01.929Z,1.73
2022-11-23T08:10:31.522Z,1.80
2022-11-23T08:13:03.922Z,2.03
2022-11-23T08:15:31.425Z,2.57
2022-11-23T08:18:00.962Z,1.92
2022-11-23T08:20:29.416Z,2.08
2022-11-23T08:22:56.773Z,2.22
2022-11-23T08:25:25.214Z,1.60
2022-11-23T08:28:01.369Z,1.85
2022-11-23T08:30:30.269Z,2.55
2022-11-23T08:32:57.837Z,1.50
2022-11-23T08:35:25.247Z,1.88
2022-11-23T08:37:52.688Z,1.80
2022-11-23T08:40:25.026Z,2.20
2022-11-23T08:42:52.901Z,1.40
2022-11-23T08:45:20.551Z,1.77
2022-11-23T08:47:47.828Z,1.70
2022-11-23T08:50:15.151Z,1.65
2022-11-23T08:52:42.731Z,1.40
2022-11-23T08:55:10.380Z,1.30
2022-11-23T08:57:37.719Z,1.98
2022-11-23T09:00:06.298Z,1.05
2022-11-23T09:02:33.662Z,1.35
2022-11-23T09:05:00.912Z,1.80
2022-11-23T09:07:28.198Z,1.50
2022-11-23T09:09:55.505Z,1.30
2022-11-23T09:12:22.807Z,1.05
2022-11-23T09:14:50.116Z,1.38
2022-11-23T09:17:17.362Z,1.17
2022-11-23T09:19:44.590Z,1.92
2022-11-23T09:22:11.937Z,1.48
2022-11-23T09:24:39.220Z,1.00
2022-11-23T09:27:06.637Z,1.50
2022-11-23T09:29:34.027Z,1.30
2022-11-23T09:32:02.992Z,1.60
2022-11-23T09:34:30.502Z,1.20
2022-11-23T09:36:58.256Z,1.70
2022-11-23T09:39:25.757Z,1.50
2022-11-23T09:42:37.470Z,1.08
2022-11-23T09:45:34.118Z,1.23
2022-11-23T09:48:20.016Z,2.25
2022-11-23T09:50:49.538Z,1.40
2022-11-23T09:53:36.491Z,1.77
2022-11-23T09:56:04.686Z,1.45
2022-11-23T09:58:38.466Z,1.38
2022-11-23T10:01:11.490Z,1.17
2022-11-23T10:03:48.184Z,1.27
2022-11-23T10:06:31.382Z,1.40
2022-11-23T10:09:21.943Z,1.55
2022-11-23T10:12:05.339Z,1.23
2022-11-23T10:17:38.894Z,1.30
2022-11-23T10:20:27.740Z,1.20
2022-11-23T10:22:58.524Z,1.20
2022-11-23T10:25:37.549Z,1.35
2022-11-23T10:28:13.492Z,1.10
2022-11-23T10:30:41.597Z,1.50
2022-11-23T10:33:23.466Z,1.15
2022-11-23T10:35:50.749Z,1.33
2022-11-23T10:38:20.368Z,1.30
2022-11-23T10:41:05.156Z,1.20
2022-11-23T10:43:55.927Z,1.52
2022-11-23T10:46:34.186Z,1.13
2022-11-23T10:49:22.678Z,1.10
2022-11-23T10:52:00.369Z,1.10
2022-11-23T10:54:33.370Z,1.10
2022-11-23T10:59:33.547Z,1.30
2022-11-23T11:02:21.724Z,1.38
2022-11-23T11:04:55.887Z,1.52
2022-11-23T11:07:30.785Z,1.20
2022-11-23T11:10:03.455Z,1.00
2022-11-23T11:12:34.645Z,1.38
2022-11-23T11:15:12.191Z,0.88
2022-11-23T11:17:41.034Z,1.20
2022-11-23T11:20:34.146Z,1.08
2022-11-23T11:23:17.794Z,1.00
2022-11-23T11:25:47.013Z,0.95
2022-11-23T11:28:26.359Z,1.10
2022-11-23T11:31:09.838Z,0.90
2022-11-23T11:36:12.203Z,0.90
2022-11-23T11:38:44.190Z,1.02
2022-11-23T11:41:25.309Z,1.05
2022-11-23T11:46:29.965Z,0.90
2022-11-23T11:49:09.045Z,1.08
2022-11-23T11:52:22.163Z,0.88
2022-11-23T11:55:11.996Z,0.80
2022-11-23T11:57:54.948Z,1.00
2022-11-23T12:00:22.453Z,1.13
2022-11-23T12:03:38.102Z,1.02
2022-11-23T12:06:26.617Z,1.25
2022-11-23T12:08:59.440Z,1.02
2022-11-23T12:11:27.802Z,0.93
2022-11-23T12:14:02.578Z,0.93
2022-11-23T12:17:30.929Z,0.90
2022-11-23T12:19:59.340Z,1.10
2022-11-23T12:22:47.478Z,0.88
2022-11-23T12:25:17.410Z,0.65
2022-11-23T12:28:06.388Z,1.10
2022-11-23T12:31:03.963Z,1.00
2022-11-23T12:33:34.117Z,0.80
2022-11-23T12:36:14.336Z,0.70
2022-11-23T12:38:51.142Z,0.80
2022-11-23T12:41:21.461Z,0.82
2022-11-23T12:44:11.055Z,0.88
2022-11-23T12:46:43.966Z,0.95
2022-11-23T12:49:39.516Z,1.00
2022-11-23T12:52:17.850Z,1.00
2022-11-23T12:55:19.192Z,1.00
2022-11-23T12:58:14.829Z,0.63
2022-11-23T13:00:48.868Z,0.85
2022-11-23T13:04:04.253Z,1.27
2022-11-23T13:06:31.424Z,1.25
2022-11-23T13:09:04.316Z,1.58
2022-11-23T13:12:09.540Z,1.00
2022-11-23T13:14:46.455Z,0.80
2022-11-23T13:17:37.996Z,0.82
2022-11-23T13:20:11.186Z,1.15
2022-11-23T13:25:09.963Z,1.63
2022-11-23T13:27:49.985Z,1.75
2022-11-23T13:30:23.036Z,2.28
2022-11-23T13:33:02.030Z,1.92
2022-11-23T13:35:29.197Z,2.30
2022-11-23T13:37:56.414Z,2.67
2022-11-23T13:40:34.755Z,1.98
2022-11-23T13:43:26.616Z,2.25
2022-11-23T13:46:27.385Z,1.98
2022-11-23T13:48:59.883Z,2.08
2022-11-23T13:51:33.100Z,1.77
2022-11-23T13:56:59.228Z,1.17
2022-11-23T13:59:32.422Z,1.65
2022-11-23T14:04:32.880Z,1.50
2022-11-23T14:07:06.886Z,1.30
2022-11-23T14:09:54.982Z,2.20
2022-11-23T14:12:49.772Z,1.20
2022-11-23T14:15:21.140Z,1.30
2022-11-23T14:18:00.597Z,1.70
2022-11-23T14:20:28.191Z,1.73
2022-11-23T14:23:18.079Z,1.42
2022-11-23T14:26:03.561Z,1.48
2022-11-23T14:28:55.601Z,1.35
2022-11-23T14:32:01.442Z,1.80
2022-11-23T14:34:36.111Z,1.63
2022-11-23T14:37:37.649Z,1.88
2022-11-23T14:40:35.904Z,1.50
2022-11-23T14:43:03.822Z,1.90
2022-11-23T14:45:34.060Z,1.50
2022-11-23T14:48:27.539Z,1.60
2022-11-23T14:51:07.253Z,1.33
2022-11-23T14:53:46.928Z,1.52
2022-11-23T14:56:36.826Z,1.30
2022-11-23T14:59:18.382Z,1.80
2022-11-23T15:01:54.470Z,1.60
2022-11-23T15:04:29.361Z,1.90
2022-11-23T15:07:15.560Z,1.30
2022-11-23T15:10:03.215Z,1.63
2022-11-23T15:12:44.204Z,1.70
2022-11-23T15:15:27.662Z,1.58
2022-11-23T15:20:33.472Z,1.52
2022-11-23T15:23:02.414Z,1.60
2022-11-23T15:25:30.419Z,1.90
2022-11-23T15:27:57.945Z,1.52
2022-11-23T15:30:30.692Z,1.70
2022-11-23T15:33:05.517Z,1.55
2022-11-23T15:35:35.720Z,2.38
2022-11-23T15:38:06.726Z,1.52
2022-11-23T15:40:37.367Z,2.42
2022-11-23T15:43:04.863Z,2.05
2022-11-23T15:45:44.279Z,1.60
2022-11-23T15:48:17.725Z,1.98
2022-11-23T15:50:52.359Z,1.90
2022-11-23T15:53:27.433Z,2.03
2022-11-23T15:55:58.693Z,2.10
2022-11-23T15:58:26.340Z,2.13
2022-11-23T16:01:16.491Z,2.38
2022-11-23T16:03:53.804Z,2.50
2022-11-23T16:06:39.388Z,2.25
2022-11-23T16:09:50.532Z,2.80
2022-11-23T16:12:23.761Z,2.30
2022-11-23T16:14:52.111Z,2.65
2022-11-23T16:17:23.670Z,2.70
2022-11-23T16:19:56.892Z,2.72
2022-11-23T16:24:54.683Z,3.45
2022-11-23T16:27:25.628Z,2.65
2022-11-23T16:29:57.564Z,2.53
2022-11-23T16:32:31.179Z,2.72
2022-11-23T16:35:14.710Z,3.20
2022-11-23T16:37:41.930Z,3.08
2022-11-23T16:40:09.767Z,3.58
2022-11-23T16:42:37.018Z,3.30
2022-11-23T16:45:05.043Z,3.38
2022-11-23T16:47:32.732Z,3.08
2022-11-23T16:49:59.988Z,3.63
2022-11-23T16:52:27.304Z,3.08
2022-11-23T16:54:54.640Z,3.45
2022-11-23T16:57:31.246Z,3.65
2022-11-23T17:00:01.422Z,3.70
2022-11-23T17:02:28.787Z,3.67
2022-11-23T17:04:56.239Z,3.25
2022-11-23T17:07:23.635Z,3.58
2022-11-23T17:09:50.930Z,3.50
2022-11-23T17:12:20.300Z,3.50
2022-11-23T17:14:49.686Z,3.53
2022-11-23T17:17:22.107Z,3.67
2022-11-23T17:19:50.264Z,4.07
2022-11-23T17:22:19.361Z,3.05
2022-11-23T17:24:48.127Z,3.65
2022-11-23T17:27:20.001Z,4.05
2022-11-23T17:29:48.685Z,3.90
2022-11-23T17:32:15.900Z,3.45
2022-11-23T17:34:43.203Z,3.70
2022-11-23T17:37:19.913Z,3.65
2022-11-23T17:39:48.904Z,3.30
2022-11-23T17:42:16.585Z,3.88
2022-11-23T17:44:43.984Z,3.22
2022-11-23T17:47:25.611Z,3.92
2022-11-23T17:49:53.079Z,3.80
2022-11-23T17:52:21.121Z,4.38
2022-11-23T17:54:48.697Z,3.95
2022-11-23T17:57:22.320Z,3.80
2022-11-23T17:59:49.925Z,3.65
2022-11-23T18:02:17.234Z,4.35
2022-11-23T18:04:44.587Z,4.38
2022-11-23T18:07:16.299Z,4.03
2022-11-23T18:09:43.596Z,4.07
2022-11-23T18:12:11.704Z,4.22
2022-11-23T18:14:39.011Z,3.70
2022-11-23T18:17:06.273Z,4.50
2022-11-23T18:19:33.898Z,4.03
2022-11-23T18:22:01.421Z,4.00
2022-11-23T18:24:28.690Z,4.43
2022-11-23T18:26:56.140Z,5.13
2022-11-23T18:29:23.426Z,4.50
2022-11-23T18:31:50.744Z,4.93
2022-11-23T18:34:17.978Z,5.78
2022-11-23T18:36:45.203Z,5.43
2022-11-23T18:39:12.529Z,4.78
2022-11-23T18:41:39.936Z,5.68
2022-11-23T18:44:07.855Z,5.72
2022-11-23T18:46:35.202Z,5.50
2022-11-23T18:49:02.752Z,4.68
2022-11-23T18:51:29.995Z,4.90
2022-11-23T18:53:57.788Z,5.28
2022-11-23T18:56:25.094Z,5.07
2022-11-23T18:58:52.307Z,4.72
2022-11-23T19:01:21.811Z,4.57
2022-11-23T19:03:51.415Z,5.00
2022-11-23T19:06:21.532Z,5.15
2022-11-23T19:08:51.462Z,5.15
2022-11-23T19:11:21.560Z,4.90
2022-11-23T19:13:51.558Z,4.65
2022-11-23T19:16:24.152Z,5.68
2022-11-23T19:19:05.245Z,4.78
2022-11-23T19:21:34.795Z,5.00
2022-11-23T19:24:02.946Z,5.47
2022-11-23T19:26:30.781Z,5.82
2022-11-23T19:28:59.525Z,5.05
2022-11-23T19:31:29.813Z,5.75
2022-11-23T19:34:02.117Z,5.00
2022-11-23T19:36:30.964Z,5.25
2022-11-23T19:39:00.596Z,5.40
2022-11-23T19:41:30.750Z,4.65
2022-11-23T19:44:00.055Z,4.40
2022-11-23T19:46:28.575Z,5.07
2022-11-23T19:48:57.592Z,5.90
2022-11-23T19:51:26.095Z,5.47
2022-11-23T19:53:54.820Z,5.43
2022-11-23T19:56:24.173Z,5.72
2022-11-23T19:58:56.748Z,5.47
2022-11-23T20:01:25.996Z,5.75
2022-11-23T20:03:55.138Z,5.78
2022-11-23T20:06:29.702Z,5.80
2022-11-23T20:09:02.551Z,5.63
2022-11-23T20:11:31.754Z,5.68
2022-11-23T20:13:59.589Z,5.90
2022-11-23T20:16:28.795Z,6.03
2022-11-23T20:19:02.296Z,6.50
2022-11-23T20:21:31.195Z,5.43
2022-11-23T20:24:18.767Z,5.43
2022-11-23T20:26:46.303Z,5.85
2022-11-23T20:29:14.140Z,6.25
2022-11-23T20:31:41.768Z,6.10
2022-11-23T20:34:13.140Z,6.13
2022-11-23T20:36:42.904Z,6.32
2022-11-23T20:39:11.886Z,6.30
2022-11-23T20:41:39.663Z,6.45
2022-11-23T20:44:11.325Z,6.30
2022-11-23T20:47:01.223Z,6.57
2022-11-23T20:49:26.539Z,6.30
2022-11-23T20:51:53.864Z,5.97
2022-11-23T20:54:21.244Z,6.22
2022-11-23T20:56:48.466Z,5.88
2022-11-23T20:59:15.867Z,6.43
2022-11-23T21:01:43.259Z,6.22
2022-11-23T21:04:10.851Z,7.18
2022-11-23T21:06:39.756Z,6.28
2022-11-23T21:09:09.095Z,6.65
2022-11-23T21:11:55.616Z,6.97
2022-11-23T21:14:27.370Z,6.32
2022-11-23T21:16:58.822Z,6.20
2022-11-23T21:19:31.657Z,7.00
2022-11-23T21:22:02.541Z,6.28
2022-11-23T21:24:30.017Z,6.57
2022-11-23T21:26:57.348Z,7.30
2022-11-23T21:29:24.638Z,6.90
2022-11-23T21:31:52.091Z,6.97
2022-11-23T21:34:20.483Z,6.65
2022-11-23T21:36:48.294Z,6.43
2022-11-23T21:39:16.335Z,6.60
2022-11-23T21:41:44.320Z,7.22
2022-11-23T21:44:12.320Z,6.80
2022-11-23T21:46:41.013Z,7.03
2022-11-23T21:49:09.259Z,6.35
2022-11-23T21:51:38.022Z,6.45
2022-11-23T21:54:07.432Z,6.82
2022-11-23T21:56:34.844Z,7.32
2022-11-23T21:59:02.293Z,5.95
2022-11-23T22:01:31.961Z,6.88
2022-11-23T22:04:08.880Z,6.55
2022-11-23T22:06:37.815Z,6.78
2022-11-23T22:09:07.573Z,6.65
2022-11-23T22:11:36.437Z,6.90
2022-11-23T22:14:09.702Z,6.90
2022-11-23T22:19:06.465Z,6.97
2022-11-23T22:21:38.029Z,6.88
2022-11-23T22:24:06.771Z,7.07
2022-11-23T22:26:34.091Z,6.13
2022-11-23T22:29:06.061Z,6.30
2022-11-23T22:31:34.821Z,6.63
2022-11-23T22:34:04.176Z,7.32
2022-11-23T22:36:32.237Z,6.60
2022-11-23T22:39:02.317Z,6.85
2022-11-23T22:41:36.249Z,7.28
2022-11-23T22:44:06.711Z,6.63
2022-11-23T22:46:34.031Z,6.85
2022-11-23T22:49:01.991Z,7.78
2022-11-23T22:51:30.145Z,6.38
2022-11-23T22:53:59.456Z,7.07
2022-11-23T22:56:28.752Z,6.00
2022-11-23T22:58:56.500Z,6.32
2022-11-23T23:01:26.646Z,7.05
2022-11-23T23:03:56.197Z,6.70
2022-11-23T23:06:26.475Z,6.53
2022-11-23T23:08:56.481Z,6.60
2022-11-23T23:11:25.270Z,6.40
2022-11-23T23:13:52.967Z,6.53
2022-11-23T23:16:20.667Z,6.50
2022-11-23T23:18:48.115Z,7.13
2022-11-23T23:21:17.665Z,6.82
2022-11-23T23:23:47.481Z,6.28
2022-11-23T23:26:17.190Z,6.35
2022-11-23T23:28:45.318Z,6.65
2022-11-23T23:31:16.195Z,7.07
2022-11-23T23:33:44.878Z,7.18
2022-11-23T23:36:20.987Z,6.63
2022-11-23T23:38:48.530Z,6.15
2022-11-23T23:41:15.934Z,6.20
2022-11-23T23:43:43.302Z,5.82
2022-11-23T23:46:13.300Z,5.75
2022-11-23T23:48:41.282Z,6.50
2022-11-23T23:51:13.552Z,7.13
2022-11-23T23:53:41.369Z,5.30
2022-11-23T23:56:22.844Z,5.85
2022-11-23T23:58:50.755Z,6.55
